Flight Track Log - Related Links

Times and Time Zones

All times are in EDT time to prevent confusion due to time zone crossing. See the UAL692 flight status page for this flight to view local times or setup timezone preferences in your user account.

Time Position Orientation Groundspeed Altitude Reporting Facility
EDT Latitude Longitude Course Direction KTS MPH feet Rate Location/Type
Wed 07:15:50 PM 41.9667 -87.8667 90° East 160 184 2,100  Level Chicago TRACON
Wed 07:16:50 PM 41.9333 -87.7833 118° Southeast 241 277 4,100 1,900 Climbing Chicago TRACON
Wed 07:17:50 PM 41.9269 -87.6967 96° East 261 300 5,900 2,607 Climbing Chicago Center
Wed 07:18:52 PM 41.9303 -87.5856 88° East 279 321 9,400 2,855 Climbing Chicago Center
Wed 07:19:00 PM 41.9407 -87.2447 96° East  Level FlightAware Approximate
Wed 07:19:54 PM 41.9339 -87.4717 88° East 303 349 11,800  Level Chicago Center
Wed 07:20:00 PM 41.9333 -87.0785 90° East  Level FlightAware Approximate
Wed 07:20:57 PM 41.9386 -87.3192 88° East 385 443 13,000  Level Chicago Center
Wed 07:21:00 PM 41.9334 -86.9117 90° East  Level FlightAware Approximate
Wed 07:21:59 PM 41.9428 -87.1592 88° East 426 490 14,800  Level Chicago Center
Wed 07:23:01 PM 41.9475 -86.9919 88° East 449 517 16,800 1,694 Climbing Chicago Center
Wed 07:24:03 PM 41.9492 -86.8289 89° East 456 525 18,300 1,694 Climbing Chicago Center
Wed 07:25:05 PM 41.9511 -86.6306 89° East 476 548 20,300 1,694 Climbing Chicago Center
Wed 07:26:07 PM 41.9544 -86.4481 89° East 487 560 21,800 1,452 Climbing Chicago Center
Wed 07:27:09 PM 41.9556 -86.2594 89° East 501 577 23,300 1,258 Climbing Chicago Center
Wed 07:28:11 PM 41.9422 -86.0694 95° East 510 587 24,400 1,008 Climbing Chicago Center
Wed 07:29:14 PM 41.9239 -85.8744 97° East 520 598 25,400 1,200 Climbing Chicago Center
Wed 07:30:16 PM 41.9014 -85.6358 97° East 530 610 26,900 1,452 Climbing Chicago Center
Wed 07:31:18 PM 41.8836 -85.4367 97° East 531 611 28,400 1,306 Climbing Chicago Center
Wed 07:32:20 PM 41.8622 -85.2378 98° East 530 610 29,600 1,113 Climbing Chicago Center
Wed 07:33:22 PM 41.8431 -85.0361 97° East 536 617 30,700 1,306 Climbing Chicago Center
Wed 07:34:24 PM 41.8211 -84.8353 98° East 545 627 32,300 1,398 Climbing Chicago Center
Wed 07:35:05 PM 41.8092 -84.7167 98° East 537 618 33,100 1,282 Climbing Cleveland Center
Wed 07:36:07 PM 41.7828 -84.4797 98° East 537 618 34,500 1,268 Climbing Cleveland Center
Wed 07:37:08 PM 41.7767 -84.2833 92° East 531 611 35,700 1,073 Climbing Cleveland Center
Wed 07:38:10 PM 41.7761 -84.1083 90° East 529 609 36,700 629 Climbing Cleveland Center
Wed 07:39:12 PM 41.7747 -83.9114 90° East 530 610 37,000 146 Climbing Cleveland Center
Wed 07:40:13 PM 41.7719 -83.6725 91° East 539 620 37,000  Level Cleveland Center
Wed 07:41:15 PM 41.7639 -83.4731 93° East 541 623 37,000  Level Cleveland Center
Wed 07:42:17 PM 41.7436 -83.2719 98° East 547 629 37,000  Level Cleveland Center
Wed 07:43:19 PM 41.7236 -83.0694 97° East 551 634 37,000  Level Cleveland Center
Wed 07:44:20 PM 41.7033 -82.8664 98° East 551 634 37,000  Level Cleveland Center
Wed 07:45:22 PM 41.6781 -82.6219 98° East 554 638 37,000  Level Cleveland Center
Wed 07:46:24 PM 41.6578 -82.4200 98° East 553 636 37,000  Level Cleveland Center
Wed 07:47:26 PM 41.6353 -82.2075 98° East 551 634 37,000  Level Cleveland Center
Wed 07:48:27 PM 41.6125 -82.0042 98° East 551 634 37,000  Level Cleveland Center
Wed 07:49:29 PM 41.5908 -81.8028 98° East 543 625 37,000  Level Cleveland Center
Wed 07:50:31 PM 41.5683 -81.6003 98° East 542 624 37,000  Level Cleveland Center
Wed 07:51:33 PM 41.5447 -81.3986 99° East 541 623 37,000  Level Cleveland Center
Wed 07:52:35 PM 41.5214 -81.2000 99° East 538 619 37,000  Level Cleveland Center
Wed 07:53:37 PM 41.5033 -81.0094 97° East 506 582 37,000 48 Level Cleveland Center
Wed 07:54:39 PM 41.4872 -80.8311 97° East 480 552 37,100 484 Climbing Cleveland Center
Wed 07:55:41 PM 41.4728 -80.6547 96° East 478 550 38,000 780 Climbing Cleveland Center
Wed 07:56:42 PM 41.4556 -80.4803 97° East 475 547 38,700 488 Climbing Cleveland Center
Wed 07:57:44 PM 41.4372 -80.2878 97° East 476 548 39,000 145 Climbing Cleveland Center
Wed 07:58:46 PM 41.3664 -80.1322 121° Southeast 501 577 39,000  Level Cleveland Center
Wed 07:59:48 PM 41.2589 -80.0183 141° Southeast 498 573 39,000  Level Cleveland Center
Wed 08:00:50 PM 41.1914 -79.8639 120° Southeast 498 573 39,000  Level Cleveland Center
Wed 08:01:52 PM 41.1914 -79.6467 90° East 485 558 39,000  Level Cleveland Center
Wed 08:02:54 PM 41.1956 -79.4583 88° East 496 571 39,000  Level Cleveland Center
Wed 08:03:57 PM 41.1994 -79.2761 88° East 503 579 39,000 -96 Level Cleveland Center
Wed 08:04:59 PM 41.2019 -79.0931 89° East 500 575 38,800 -919 Descending Cleveland Center
Wed 08:06:01 PM 41.2056 -78.9022 88° East 500 575 37,100 -1,500 Descending Cleveland Center
Wed 08:07:03 PM 41.2081 -78.7186 89° East 500 575 35,700 -1,355 Descending Cleveland Center
Wed 08:08:05 PM 41.2119 -78.5311 88° East 505 581 34,300 -1,306 Descending Cleveland Center
Wed 08:09:07 PM 41.2128 -78.3019 90° East 518 596 33,000 -629 Descending Cleveland Center
Wed 08:10:09 PM 41.2122 -78.1217 90° East 485 558 33,000  Level Cleveland Center
Wed 08:11:11 PM 41.1922 -77.9553 99° East 463 533 33,000  Level Cleveland Center
Wed 08:12:13 PM 41.1708 -77.7953 100° East 450 518 33,000 -339 Level Cleveland Center
Wed 08:13:15 PM 41.1514 -77.6319 99° East 450 518 32,300 -960 Descending Cleveland Center
Wed 08:14:18 PM 41.1308 -77.4692 99° East 450 518 31,000 -1,415 Descending Cleveland Center
Wed 08:15:01 PM 41.1111 -77.3283 100° East 448 516 29,800 -2,057 Descending New York Center
Wed 08:16:03 PM 41.0892 -77.1581 100° East 448 516 27,400 -2,400 Descending New York Center
Wed 08:17:01 PM 41.0667 -76.9936 100° East 453 521 25,000 -2,370 Descending New York Center
Wed 08:18:02 PM 41.0442 -76.8236 100° East 453 521 22,700 -1,967 Descending New York Center
Wed 08:19:03 PM 41.0208 -76.6647 101° East 453 521 21,000 -857 Descending New York Center
Wed 08:20:01 PM 41.0636 -76.5611 61° Northeast 339 390 21,000  Level New York Center
Wed 08:21:01 PM 41.1317 -76.5753 351° North 200 230 21,000  Level New York Center
Wed 08:22:00 PM 41.1633 -76.6525 299° West 152 175 21,000  Level New York Center
Wed 08:23:01 PM 41.1756 -76.7389 281° West 202 232 21,000  Level New York Center
Wed 08:24:03 PM 41.1878 -76.8283 280° West 216 249 21,000  Level New York Center
Wed 08:25:02 PM 41.1789 -76.9186 263° West 239 275 21,000  Level New York Center
Wed 08:26:01 PM 41.0997 -76.9581 201° Southwest 241 277 21,000  Level New York Center
Wed 08:27:01 PM 41.0486 -76.8600 125° Southeast 203 234 21,000  Level New York Center
Wed 08:28:03 PM 41.0317 -76.7428 101° East 236 272 21,000  Level New York Center
Wed 08:29:01 PM 41.0250 -76.6239 94° East 284 327 21,000  Level New York Center
Wed 08:30:01 PM 41.0839 -76.5711 34° Northeast 211 243 21,000  Level New York Center
Wed 08:31:03 PM 41.1356 -76.6197 325° Northwest 154 177 21,000  Level New York Center
Wed 08:32:01 PM 41.1500 -76.7064 283° West 160 184 21,000  Level New York Center
Wed 08:33:01 PM 41.1625 -76.7928 281° West 201 231 21,000  Level New York Center
Wed 08:34:03 PM 41.1681 -76.8844 275° West 224 258 21,000  Level New York Center
Wed 08:35:02 PM 41.1103 -76.9536 222° Southwest 235 270 21,000 -137 Level New York Center
Wed 08:36:14 PM 41.0308 -76.8392 133° Southeast 209 241 20,700 -833 Descending New York Center
Wed 08:37:26 PM 41.0017 -76.6769 103° East 291 335 19,000 -767 Descending New York Center
Wed 08:38:27 PM 40.9769 -76.5428 104° East 347 399 19,000  Level New York Center
Wed 08:39:26 PM 40.9553 -76.4283 104° East 360 414 19,000  Level New York Center
Wed 08:40:27 PM 40.9303 -76.2972 104° East 367 422 19,000 -661 Level New York Center
Wed 08:41:24 PM 40.8994 -76.1547 106° East 367 422 17,700 -1,412 Descending New York Center
Wed 08:42:26 PM 40.8697 -76.0289 107° East 367 422 16,200 -1,721 Descending New York Center
Wed 08:43:26 PM 40.8361 -75.8917 108° East 407 468 14,200 -1,587 Descending New York Center
Wed 08:44:27 PM 40.7986 -75.7408 108° East 434 499 13,000 -605 Descending New York Center
Wed 08:45:25 PM 40.7575 -75.5789 108° East 427 491 13,000 -101 Level New York Center
Wed 08:46:26 PM 40.7239 -75.4314 107° East 427 491 12,800 -590 Descending New York Center
Wed 08:47:27 PM 40.6942 -75.2817 105° East 433 498 11,800 -1,059 Descending New York Center
Wed 08:48:25 PM 40.6558 -75.1369 109° East 416 479 10,700 -908 Descending New York Center
Wed 08:49:26 PM 40.5786 -75.0256 132° Southeast 403 464 10,000 -344 Descending New York Center
Wed 08:50:27 PM 40.5353 -74.8944 113° Southeast 401 461 10,000  Level New York Center
Wed 08:51:27 PM 40.4714 -74.8142 136° Southeast 345 397 10,000 -458 Level New York Center
Wed 08:52:25 PM 40.4133 -74.7453 138° Southeast 295 339 9,100 -513 Descending New York Center
Wed 08:53:24 PM 40.3569 -74.6875 142° Southeast 266 306 9,000 -66 Descending New York Center
Wed 08:53:56 PM 40.3333 -74.6500 130° Southeast 238 274 9,000  Level New York TRACON
Wed 08:54:50 PM 40.2833 -74.6000 143° Southeast 241 277 9,000 -316 Level New York TRACON
Wed 08:55:50 PM 40.2500 -74.5333 123° Southeast 234 269 8,400 -526 Descending New York TRACON
Wed 08:56:44 PM 40.2500 -74.4667 90° East 234 269 8,000 -200 Descending New York TRACON
Wed 08:57:50 PM 40.3000 -74.4000 45° Northeast 215 247 8,000  Level New York TRACON
Wed 08:58:50 PM 40.3500 -74.3500 37° Northeast 217 250 8,000  Level New York TRACON
Wed 08:59:25 PM 40.3789 -74.3264 32° Northeast 211 243 8,000  Level New York Center
Wed 09:00:26 PM 40.4242 -74.2769 40° Northeast 211 243 8,000  Level New York Center
Wed 09:01:26 PM 40.4694 -74.2247 41° Northeast 211 243 8,000 -347 Level New York Center
Wed 09:02:27 PM 40.5147 -74.1753 40° Northeast 211 243 7,300 -958 Descending New York Center
Wed 09:03:50 PM 40.5833 -74.1000 40° Northeast 208 239 5,700 -1,091 Descending New York TRACON
Wed 09:04:50 PM 40.6167 -74.0500 49° Northeast 202 232 4,700 -800 Descending New York TRACON
Wed 09:05:50 PM 40.6667 -74.0000 37° Northeast 206 237 4,100 -368 Descending New York TRACON
Wed 09:06:44 PM 40.7000 -73.9500 49° Northeast 207 238 4,000 -53 Descending New York TRACON
Wed 09:07:44 PM 40.7333 -73.9000 49° Northeast 207 238 4,000  Level New York TRACON
Wed 09:08:44 PM 40.7667 -73.8333 57° Northeast 217 250 4,000 -350 Level New York TRACON
Wed 09:09:44 PM 40.7833 -73.7667 72° East 196 226 3,300 -500 Descending New York TRACON
Wed 09:10:44 PM 40.8000 -73.6833 75° East 209 241 3,000 -347 Descending New York TRACON
Wed 09:11:45 PM 40.7667 -73.6333 131° Southeast 217 250 2,600 -500 Descending New York TRACON
Wed 09:12:44 PM 40.7167 -73.6167 166° South 202 232 2,000 -303 Descending New York TRACON
Wed 09:13:44 PM 40.7167 -73.6833 270° West 165 190 2,000 -99 Level New York TRACON
Wed 09:14:45 PM 40.7167 -73.7333 270° West 159 183 1,800 -238 Descending New York TRACON
Wed 09:15:50 PM 40.7333 -73.7833 294° West 111 128 1,500 -403 Descending New York TRACON
Wed 09:16:44 PM 40.7500 -73.8000 323° Northwest 104 120 1,000 -579 Descending New York TRACON
Wed 09:17:44 PM 40.7667 -73.8333 303° West 108 124 400 -600 Descending New York TRACON

Login

Don't have an account? Register now (free) for customized features, flight alerts, and more!